createdAt,value
2023-02-14T00:01:24.882Z,99949.56
2023-02-14T00:03:53.550Z,99939.13
2023-02-14T00:06:21.445Z,99934.75
2023-02-14T00:08:48.854Z,99926.84
2023-02-14T00:11:16.246Z,99932.19
2023-02-14T00:14:03.917Z,99924.38
2023-02-14T00:16:33.722Z,99921.78
2023-02-14T00:19:03.698Z,99927.94
2023-02-14T00:21:38.571Z,99921.78
2023-02-14T00:24:19.767Z,99920.84
2023-02-14T00:26:47.475Z,99914.78
2023-02-14T00:29:21.075Z,99923.47
2023-02-14T00:31:51.737Z,99925.25
2023-02-14T00:34:21.194Z,99934.75
2023-02-14T00:36:49.622Z,99929.63
2023-02-14T00:39:18.200Z,99920.06
2023-02-14T00:41:46.092Z,99920.78
2023-02-14T00:44:14.082Z,99909.41
2023-02-14T00:46:42.863Z,99904.22
2023-02-14T00:49:10.553Z,99894.59
2023-02-14T00:51:38.830Z,99887.66
2023-02-14T00:54:06.499Z,99884.22
2023-02-14T00:56:34.053Z,99886.78
2023-02-14T00:59:02.010Z,99884.16
2023-02-14T01:01:29.431Z,99876.41
2023-02-14T01:03:56.920Z,99887.63
2023-02-14T01:06:24.297Z,99886.84
2023-02-14T01:08:51.632Z,99890.31
2023-02-14T01:11:21.805Z,99895.53
2023-02-14T01:13:50.340Z,99884.22
2023-02-14T01:16:20.897Z,99877.97
2023-02-14T01:18:50.513Z,99881.56
2023-02-14T01:21:22.597Z,99873.63
2023-02-14T01:23:53.424Z,99872.88
2023-02-14T01:26:22.289Z,99881.44
2023-02-14T01:28:50.194Z,99876.25
2023-02-14T01:31:23.965Z,99871.88
2023-02-14T01:33:54.128Z,99867.53
2023-02-14T01:36:24.406Z,99864.81
2023-02-14T01:38:53.848Z,99863.13
2023-02-14T01:41:24.849Z,99857.00
2023-02-14T01:43:59.828Z,99848.25
2023-02-14T01:46:32.826Z,99833.38
2023-02-14T01:49:09.748Z,99824.75
2023-02-14T01:51:43.336Z,99829.13
2023-02-14T01:54:11.959Z,99820.28
2023-02-14T01:56:43.544Z,99815.13
2023-02-14T01:59:17.921Z,99821.28
2023-02-14T02:01:47.368Z,99812.53
2023-02-14T02:04:25.208Z,99801.31
2023-02-14T02:07:00.799Z,99788.22
2023-02-14T02:09:43.912Z,99783.78
2023-02-14T02:12:11.119Z,99800.53
2023-02-14T02:14:38.521Z,99800.56
2023-02-14T02:17:06.341Z,99811.06
2023-02-14T02:19:58.148Z,99806.69
2023-02-14T02:22:37.757Z,99816.28
2023-02-14T02:25:37.354Z,99811.09
2023-02-14T02:28:04.688Z,99808.34
2023-02-14T02:30:44.354Z,99799.75
2023-02-14T02:33:49.790Z,99787.72
2023-02-14T02:36:34.324Z,99789.31
2023-02-14T02:39:17.367Z,99785.88
2023-02-14T02:41:49.503Z,99789.38
2023-02-14T02:44:16.763Z,99784.25
2023-02-14T02:47:12.252Z,99784.22
2023-02-14T02:50:25.682Z,99792.91
2023-02-14T02:53:07.338Z,99792.03
2023-02-14T02:56:11.878Z,99791.09
2023-02-14T02:58:55.004Z,99799.81
2023-02-14T03:01:28.693Z,99803.41
2023-02-14T03:04:19.140Z,99804.13
2023-02-14T03:06:48.189Z,99819.88
2023-02-14T03:09:24.539Z,99821.59
2023-02-14T03:12:15.595Z,99811.97
2023-02-14T03:14:56.099Z,99824.91
2023-02-14T03:17:43.494Z,99827.59
2023-02-14T03:20:21.086Z,99829.34
2023-02-14T03:22:50.532Z,99826.00
2023-02-14T03:25:32.034Z,99836.38
2023-02-14T03:28:27.416Z,99839.81
2023-02-14T03:31:12.980Z,99836.38
2023-02-14T03:33:45.995Z,99832.09
2023-02-14T03:36:20.128Z,99841.91
2023-02-14T03:38:57.480Z,99851.53
2023-02-14T03:41:29.888Z,99849.81
2023-02-14T03:44:02.447Z,99847.31
2023-02-14T03:46:42.941Z,99855.13
2023-02-14T03:49:15.748Z,99854.34
2023-02-14T03:51:45.313Z,99857.88
2023-02-14T03:54:14.789Z,99857.88
2023-02-14T03:56:46.226Z,99865.00
2023-02-14T03:59:22.970Z,99856.28
2023-02-14T04:02:04.477Z,99864.13
2023-02-14T04:04:36.161Z,99861.53
2023-02-14T04:07:20.822Z,99869.41
2023-02-14T04:09:49.053Z,99862.44
2023-02-14T04:12:19.830Z,99860.78
2023-02-14T04:14:51.593Z,99873.03
2023-02-14T04:17:57.504Z,99864.25
2023-02-14T04:20:25.358Z,99859.94
2023-02-14T04:22:54.448Z,99862.56
2023-02-14T04:25:25.829Z,99856.50
2023-02-14T04:27:53.138Z,99859.97
2023-02-14T04:30:23.028Z,99864.38
2023-02-14T04:32:51.015Z,99869.63
2023-02-14T04:35:19.025Z,99860.91
2023-02-14T04:37:46.337Z,99868.69
2023-02-14T04:40:18.075Z,99866.22
2023-02-14T04:42:46.864Z,99888.88
2023-02-14T04:45:15.697Z,99884.47
2023-02-14T04:47:43.148Z,99891.31
2023-02-14T04:50:10.659Z,99894.88
2023-02-14T04:52:46.123Z,99892.25
2023-02-14T04:55:14.436Z,99891.34
2023-02-14T04:57:42.772Z,99893.91
2023-02-14T05:00:11.285Z,99902.72
2023-02-14T05:02:39.060Z,99908.78
2023-02-14T05:05:07.027Z,99910.53
2023-02-14T05:07:34.793Z,99920.19
2023-02-14T05:10:03.040Z,99921.06
2023-02-14T05:12:30.786Z,99923.69
2023-02-14T05:15:00.058Z,99936.75
2023-02-14T05:17:27.726Z,99922.84
2023-02-14T05:19:55.029Z,99940.19
2023-02-14T05:22:22.738Z,99928.00
2023-02-14T05:24:50.565Z,99930.63
2023-02-14T05:27:18.873Z,99935.94
2023-02-14T05:29:47.264Z,99931.56
2023-02-14T05:32:15.428Z,99940.25
2023-02-14T05:34:43.297Z,99936.75
2023-02-14T05:37:10.775Z,99945.47
2023-02-14T05:39:38.939Z,99952.47
2023-02-14T05:44:34.764Z,99949.75
2023-02-14T05:47:02.847Z,99939.28
2023-02-14T05:49:30.858Z,99950.59
2023-02-14T05:51:59.213Z,99936.66
2023-02-14T05:54:26.846Z,99938.31
2023-02-14T05:56:54.357Z,99936.69
2023-02-14T05:59:22.197Z,99935.63
2023-02-14T06:01:49.858Z,99939.06
2023-02-14T06:04:18.025Z,99944.25
2023-02-14T06:06:46.432Z,99947.69
2023-02-14T06:09:14.591Z,99951.91
2023-02-14T06:11:42.960Z,99951.84
2023-02-14T06:14:11.054Z,99960.50
2023-02-14T06:16:38.788Z,99951.66
2023-02-14T06:19:07.144Z,99961.91
2023-02-14T06:21:34.714Z,99958.31
2023-02-14T06:24:06.745Z,99951.31
2023-02-14T06:26:36.509Z,99967.69
2023-02-14T06:29:04.940Z,99954.59
2023-02-14T06:31:33.253Z,99963.13
2023-02-14T06:34:01.142Z,99959.63
2023-02-14T06:36:30.013Z,99959.56
2023-02-14T06:38:57.483Z,99955.91
2023-02-14T06:41:25.051Z,99967.19
2023-02-14T06:43:53.118Z,99968.84
2023-02-14T06:46:21.104Z,99961.75
2023-02-14T06:48:48.889Z,99970.50
2023-02-14T06:51:16.667Z,99962.47
2023-02-14T06:53:44.862Z,99965.16
2023-02-14T06:56:13.121Z,99961.53
2023-02-14T06:58:41.354Z,99964.09
2023-02-14T07:01:09.781Z,99965.06
2023-02-14T07:03:37.978Z,99965.84
2023-02-14T07:06:05.958Z,99967.47
2023-02-14T07:08:34.106Z,99965.72
2023-02-14T07:11:03.029Z,99963.69
2023-02-14T07:13:30.844Z,99975.97
2023-02-14T07:16:00.973Z,99979.19
2023-02-14T07:18:31.501Z,99979.94
2023-02-14T07:20:59.608Z,99973.53
2023-02-14T07:23:28.164Z,99969.81
2023-02-14T07:25:59.095Z,99964.59
2023-02-14T07:28:26.715Z,99960.91
2023-02-14T07:30:55.107Z,99954.69
2023-02-14T07:33:23.312Z,99963.22
2023-02-14T07:35:51.099Z,99958.06
2023-02-14T07:38:19.177Z,99949.47
2023-02-14T07:40:46.445Z,99943.34
2023-02-14T07:43:14.278Z,99952.19
2023-02-14T07:45:42.838Z,99953.53
2023-02-14T07:48:10.715Z,99955.44
2023-02-14T07:50:40.859Z,99942.28
2023-02-14T07:53:10.557Z,99955.78
2023-02-14T07:55:41.543Z,99951.53
2023-02-14T07:58:09.907Z,99949.53
2023-02-14T08:00:38.778Z,99951.16
2023-02-14T08:03:06.691Z,99928.56
2023-02-14T08:05:35.017Z,99927.59
2023-02-14T08:08:03.063Z,99938.28
2023-02-14T08:10:32.657Z,99933.34
2023-02-14T08:13:00.656Z,99939.28
2023-02-14T08:15:51.877Z,99939.72
2023-02-14T08:18:27.779Z,99935.91
2023-02-14T08:20:56.989Z,99928.59
2023-02-14T08:23:24.962Z,99927.69
2023-02-14T08:25:53.678Z,99931.09
2023-02-14T08:28:25.075Z,99941.25
2023-02-14T08:30:54.989Z,99941.75
2023-02-14T08:33:24.019Z,99935.84
2023-02-14T08:35:52.989Z,99942.09
2023-02-14T08:38:21.703Z,99950.31
2023-02-14T08:40:50.035Z,99941.50
2023-02-14T08:43:18.980Z,99934.06
2023-02-14T08:45:50.348Z,99924.25
2023-02-14T08:48:19.053Z,99923.44
2023-02-14T08:50:47.268Z,99931.31
2023-02-14T08:53:15.260Z,99939.09
2023-02-14T08:55:51.858Z,99938.56
2023-02-14T08:58:23.928Z,99947.66
2023-02-14T09:00:56.115Z,99943.31
2023-02-14T09:03:23.554Z,99943.00
2023-02-14T09:05:51.176Z,99934.38
2023-02-14T09:08:19.200Z,99937.06
2023-02-14T09:10:46.876Z,99954.66
2023-02-14T09:13:15.682Z,99953.28
2023-02-14T09:15:44.268Z,99948.50
2023-02-14T09:18:11.972Z,99941.34
2023-02-14T09:20:39.693Z,99948.81
2023-02-14T09:23:07.624Z,99939.47
2023-02-14T09:25:35.191Z,99948.03
2023-02-14T09:28:02.768Z,99942.31
2023-02-14T09:30:30.376Z,99932.88
2023-02-14T09:32:58.285Z,99931.31
2023-02-14T09:35:47.147Z,99925.75
2023-02-14T09:38:14.782Z,99932.44
2023-02-14T09:40:43.446Z,99934.75
2023-02-14T09:43:37.385Z,99934.63
2023-02-14T09:46:10.189Z,99932.72
2023-02-14T09:48:44.655Z,99931.13
2023-02-14T09:51:17.051Z,99932.69
2023-02-14T09:53:50.362Z,99938.78
2023-02-14T09:56:42.780Z,99940.22
2023-02-14T09:59:47.374Z,99938.56
2023-02-14T10:02:39.145Z,99935.13
2023-02-14T10:05:15.887Z,99935.56
2023-02-14T10:08:08.375Z,99940.41
2023-02-14T10:10:44.100Z,99939.41
2023-02-14T10:13:20.168Z,99926.66
2023-02-14T10:15:57.044Z,99930.41
2023-02-14T10:18:36.050Z,99940.47
2023-02-14T10:21:05.151Z,99932.56
2023-02-14T10:23:45.826Z,99926.31
2023-02-14T10:26:33.807Z,99927.06
2023-02-14T10:29:01.128Z,99930.44
2023-02-14T10:31:44.850Z,99932.25
2023-02-14T10:34:39.433Z,99937.69
2023-02-14T10:37:28.706Z,99923.41
2023-02-14T10:40:06.373Z,99922.94
2023-02-14T10:42:54.309Z,99918.22
2023-02-14T10:45:54.943Z,99909.78
2023-02-14T10:48:44.070Z,99910.41
2023-02-14T10:51:47.420Z,99914.41
2023-02-14T10:54:21.497Z,99895.03
2023-02-14T11:04:36.796Z,99893.84
2023-02-14T11:07:05.258Z,99897.16
2023-02-14T11:09:33.132Z,99893.25
2023-02-14T11:12:01.785Z,99894.88
2023-02-14T11:14:33.243Z,99873.13
2023-02-14T11:17:20.751Z,99890.03
2023-02-14T11:20:06.803Z,99886.31
2023-02-14T11:22:36.796Z,99869.97
2023-02-14T11:25:07.850Z,99887.31
2023-02-14T11:27:38.954Z,99896.41
2023-02-14T11:30:20.172Z,99887.81
2023-02-14T11:32:58.657Z,99882.25
2023-02-14T11:35:38.785Z,99870.97
2023-02-14T11:38:35.898Z,99861.22
2023-02-14T23:54:44.689Z,100496.19
2023-02-14T23:57:12.161Z,100500.56
2023-02-14T23:59:42.146Z,100495.34
